Time;durP1;ratioP1;P1;durP2;ratioP2;P2;SDS_P1;SDS_P2;PMS_P1;PMS_P2;Temp;Humidity;BMP_temperature;BMP_pressure;BME280_temperature;BME280_humidity;BME280_pressure;Samples;Min_cycle;Max_cycle;Signal;HPM_P1;HPM_P2
2022/04/22 05:01:46;;;;;;;26.35;16.35;;;6.20;99.90;;;;;;6079277;23;21324;31
2022/04/22 05:04:12;;;;;;;26.90;17.17;;;6.30;99.90;;;;;;6127988;23;20025;-77
2022/04/22 05:06:38;;;;;;;25.52;17.10;;;6.30;99.90;;;;;;6144264;23;20037;-76
2022/04/22 05:09:04;;;;;;;27.05;17.42;;;6.40;99.90;;;;;;6150481;23;19998;-76
2022/04/22 05:11:29;;;;;;;22.15;14.75;;;6.50;99.90;;;;;;6149555;23;20041;-77
2022/04/22 05:13:55;;;;;;;24.55;15.77;;;6.60;99.90;;;;;;6142300;23;20056;-77
2022/04/22 05:16:21;;;;;;;27.02;15.85;;;6.60;99.90;;;;;;6134111;23;20017;-78
2022/04/22 05:18:47;;;;;;;24.92;15.82;;;6.70;99.90;;;;;;6138455;23;20017;-77
2022/04/22 05:21:12;;;;;;;24.60;15.80;;;6.80;99.90;;;;;;6136892;23;20016;-78
2022/04/22 05:23:38;;;;;;;26.58;15.80;;;6.90;99.90;;;;;;6136830;23;20241;-77
2022/04/22 05:26:04;;;;;;;27.20;15.90;;;7.10;99.90;;;;;;6137657;23;20338;-77
2022/04/22 05:28:30;;;;;;;25.73;16.50;;;7.20;99.90;;;;;;6138213;23;20000;-77
2022/04/22 05:33:43;;;;;;;24.83;16.60;;;7.40;99.90;;;;;;6138292;23;20006;-77
2022/04/22 05:36:09;;;;;;;24.88;16.92;;;7.40;99.90;;;;;;6137531;23;20002;-77
2022/04/22 05:38:35;;;;;;;25.52;17.15;;;7.50;99.90;;;;;;6138135;23;20025;-77
2022/04/22 05:41:01;;;;;;;25.85;16.98;;;7.50;99.90;;;;;;6137747;23;20002;-78
2022/04/22 05:43:28;;;;;;;26.67;16.10;;;7.50;99.90;;;;;;6138122;23;20006;-77
2022/04/22 05:45:54;;;;;;;23.75;16.27;;;7.50;99.90;;;;;;6137439;23;20010;-77
2022/04/22 05:48:20;;;;;;;26.63;17.60;;;7.60;99.80;;;;;;6137980;23;20245;-77
2022/04/22 05:50:46;;;;;;;27.65;17.55;;;7.70;99.60;;;;;;6136559;23;20319;-77
2022/04/22 05:53:11;;;;;;;25.38;16.52;;;7.80;99.20;;;;;;6137562;23;20161;-78
2022/04/22 05:55:37;;;;;;;26.38;16.90;;;8.00;98.70;;;;;;6137724;23;20196;-77
2022/04/22 05:58:03;;;;;;;23.60;16.10;;;8.10;98.20;;;;;;6136150;23;20002;-78
2022/04/22 06:00:31;;;;;;;25.10;16.15;;;8.10;97.80;;;;;;6135958;23;20017;-79
2022/04/22 06:02:57;;;;;;;27.10;17.20;;;8.20;97.60;;;;;;6158113;23;20318;-78
2022/04/22 06:05:24;;;;;;;25.15;16.85;;;8.30;96.80;;;;;;6165130;23;20025;-77
2022/04/22 06:10:35;;;;;;;28.20;18.13;;;8.50;96.70;;;;;;6167188;23;20333;-78
2022/04/22 06:13:02;;;;;;;26.42;16.75;;;8.60;96.30;;;;;;6167387;23;20005;-78
2022/04/22 06:15:29;;;;;;;26.23;16.80;;;8.60;96.20;;;;;;6166726;23;20009;-77
2022/04/22 06:17:55;;;;;;;25.65;17.25;;;8.60;96.10;;;;;;6166347;23;20005;-78
2022/04/22 06:20:21;;;;;;;29.88;16.73;;;8.60;96.00;;;;;;6163501;23;20060;-78
2022/04/22 06:22:47;;;;;;;26.67;17.45;;;8.70;95.60;;;;;;6166123;23;20021;-77
2022/04/22 06:25:13;;;;;;;26.02;17.15;;;8.70;95.60;;;;;;6165080;23;20057;-76
2022/04/22 06:27:41;;;;;;;25.40;17.58;;;8.90;95.40;;;;;;6165315;23;20060;-76
2022/04/22 06:30:16;;;;;;;27.13;17.80;;;9.00;95.20;;;;;;6164139;23;20065;-76
2022/04/22 06:32:43;;;;;;;25.20;17.67;;;9.10;95.00;;;;;;6165364;23;20310;-76
2022/04/22 06:35:11;;;;;;;23.83;16.90;;;9.20;94.70;;;;;;6163341;23;20337;-77
2022/04/22 06:37:37;;;;;;;29.85;17.25;;;9.20;94.10;;;;;;6165585;23;20283;-77
2022/04/22 06:45:48;;;;;;;27.42;17.40;;;9.50;93.90;;;;;;6164742;23;20014;-78
2022/04/22 06:48:32;;;;;;;25.80;16.83;;;9.60;93.40;;;;;;6163379;23;20032;-78
2022/04/22 06:51:00;;;;;;;24.50;16.35;;;9.60;93.30;;;;;;6165760;23;20012;-77
2022/04/22 06:53:27;;;;;;;27.15;18.75;;;9.60;93.30;;;;;;6165133;23;20005;-78
2022/04/22 06:55:54;;;;;;;27.20;17.58;;;9.80;92.90;;;;;;6165282;23;20010;-77
2022/04/22 06:58:21;;;;;;;24.52;17.58;;;9.80;92.60;;;;;;6164907;23;20005;-77
2022/04/22 07:00:48;;;;;;;25.77;17.33;;;9.80;92.60;;;;;;6162505;23;20017;-77
2022/04/22 07:03:15;;;;;;;26.10;17.65;;;9.80;92.60;;;;;;6165021;23;20015;-77
2022/04/22 07:05:43;;;;;;;25.67;17.70;;;9.80;92.50;;;;;;6164103;23;20012;-77
2022/04/22 07:08:13;;;;;;;26.20;18.13;;;9.80;92.70;;;;;;6164559;23;20069;-77
2022/04/22 07:10:42;;;;;;;24.38;16.90;;;10.00;92.50;;;;;;6163783;23;20094;-77
2022/04/22 07:13:09;;;;;;;26.02;17.73;;;10.10;92.20;;;;;;6163088;23;20013;-78
2022/04/22 07:15:35;;;;;;;26.40;17.80;;;10.10;92.10;;;;;;6164486;23;20010;-77
2022/04/22 07:18:01;;;;;;;25.77;16.80;;;10.20;92.00;;;;;;6163564;23;20272;-77
2022/04/22 07:20:27;;;;;;;26.17;17.42;;;10.40;92.10;;;;;;6163211;23;20016;-78
2022/04/22 07:22:54;;;;;;;27.08;17.75;;;10.60;91.60;;;;;;6165222;23;20012;-78
2022/04/22 07:25:20;;;;;;;25.00;16.92;;;10.70;91.40;;;;;;6164754;23;20005;-78
2022/04/22 07:27:47;;;;;;;26.00;16.95;;;10.70;91.30;;;;;;6164261;23;20025;-79
2022/04/22 07:30:15;;;;;;;26.35;17.40;;;10.80;90.80;;;;;;6162924;23;20053;-78
2022/04/22 07:32:45;;;;;;;24.20;17.33;;;10.90;90.70;;;;;;6165095;23;20025;-80
2022/04/22 07:35:12;;;;;;;23.55;17.05;;;11.10;90.80;;;;;;6164768;23;20191;-80
2022/04/22 07:37:39;;;;;;;23.88;16.95;;;11.20;90.20;;;;;;6163708;23;20013;-78
2022/04/22 07:40:06;;;;;;;22.75;16.05;;;11.40;90.70;;;;;;6165054;23;20005;-75
2022/04/22 07:42:34;;;;;;;24.48;17.20;;;11.50;89.30;;;;;;6165033;23;19997;-77
2022/04/22 07:47:47;;;;;;;28.75;17.05;;;11.50;90.30;;;;;;6152539;23;20041;-77
2022/04/22 07:50:19;;;;;;;23.05;16.73;;;11.70;91.80;;;;;;6163016;23;20021;-78
2022/04/22 07:52:46;;;;;;;28.48;17.95;;;11.80;88.50;;;;;;6112995;23;20005;-78
2022/04/22 07:55:14;;;;;;;26.35;17.42;;;11.90;92.40;;;;;;6163778;23;20005;-78
2022/04/22 07:57:41;;;;;;;22.60;16.30;;;12.00;88.10;;;;;;6164250;23;20001;-81
2022/04/22 08:00:10;;;;;;;25.17;18.05;;;12.00;86.90;;;;;;6163530;23;20002;-78
2022/04/22 08:02:40;;;;;;;26.98;16.98;;;12.00;88.90;;;;;;6163994;23;20005;-78
2022/04/22 08:05:10;;;;;;;22.95;17.00;;;12.30;88.40;;;;;;6164757;23;20017;-78
2022/04/22 08:07:36;;;;;;;22.52;16.95;;;12.30;85.90;;;;;;6163272;23;20008;-77
2022/04/22 08:10:02;;;;;;;22.45;16.27;;;12.20;85.90;;;;;;6162749;23;20012;-77
2022/04/22 08:12:28;;;;;;;24.65;17.33;;;12.40;86.30;;;;;;6162516;23;20021;-77
2022/04/22 08:14:54;;;;;;;23.88;17.05;;;12.40;85.60;;;;;;6164178;23;20002;-79
2022/04/22 08:17:20;;;;;;;20.08;15.00;;;12.60;84.90;;;;;;6161677;23;20017;-78
2022/04/22 08:19:46;;;;;;;24.40;16.67;;;12.80;84.90;;;;;;6164358;23;20000;-77
2022/04/22 08:22:12;;;;;;;22.10;15.60;;;12.90;84.10;;;;;;6162062;23;20036;-78
2022/04/22 08:24:38;;;;;;;23.00;16.33;;;13.00;83.40;;;;;;6163927;23;20006;-77
2022/04/22 08:27:06;;;;;;;21.50;16.27;;;13.10;83.00;;;;;;6164257;23;20187;-78
2022/04/22 08:29:33;;;;;;;22.42;16.38;;;13.00;82.80;;;;;;6163468;23;20010;-78
2022/04/22 08:31:58;;;;;;;22.13;15.90;;;13.10;82.90;;;;;;6137531;23;20069;-78
2022/04/22 08:34:24;;;;;;;22.10;16.45;;;13.10;82.80;;;;;;6163656;23;20219;-77
2022/04/22 08:36:50;;;;;;;20.67;15.57;;;13.20;82.80;;;;;;6164626;23;20333;-78
2022/04/22 08:39:42;;;;;;;21.65;15.63;;;13.20;82.20;;;;;;6137769;23;20028;-78
2022/04/22 08:42:15;;;;;;;22.10;16.33;;;13.30;82.50;;;;;;6151842;23;20180;-78
2022/04/22 08:44:41;;;;;;;21.48;15.45;;;13.20;81.80;;;;;;6163827;23;20002;-78
2022/04/22 08:50:09;;;;;;;21.55;15.82;;;13.20;82.80;;;;;;6163969;23;20005;-78
2022/04/22 08:52:36;;;;;;;22.20;15.82;;;13.40;82.00;;;;;;6164039;23;20016;-77
2022/04/22 08:55:07;;;;;;;22.15;15.45;;;13.40;81.70;;;;;;6162652;23;20005;-78
2022/04/22 08:57:34;;;;;;;21.33;15.82;;;13.40;81.30;;;;;;6163357;23;20298;-78
2022/04/22 09:00:03;;;;;;;19.30;14.32;;;13.40;81.90;;;;;;6164004;23;20142;-78
2022/04/22 09:02:28;;;;;;;17.75;13.13;;;13.50;82.30;;;;;;6136543;23;20256;-78
2022/04/22 09:04:56;;;;;;;19.85;14.70;;;13.70;80.10;;;;;;6164462;23;20002;-78
2022/04/22 09:07:32;;;;;;;18.85;14.00;;;13.80;80.60;;;;;;6139335;23;19993;-78
2022/04/22 09:09:57;;;;;;;20.13;14.32;;;14.00;79.80;;;;;;6145499;23;20081;-77
2022/04/22 09:12:25;;;;;;;17.88;14.30;;;14.00;79.40;;;;;;6148397;23;20256;-76
2022/04/22 09:14:59;;;;;;;19.03;14.33;;;13.90;79.20;;;;;;6148426;23;20005;-76
2022/04/22 09:17:30;;;;;;;17.75;14.02;;;14.10;80.10;;;;;;6137176;23;20037;-76
2022/04/22 09:20:00;;;;;;;21.98;14.50;;;14.10;78.20;;;;;;6162649;23;20062;-77
2022/04/22 09:22:28;;;;;;;16.88;13.27;;;14.20;78.80;;;;;;6136978;23;20253;-78
2022/04/22 09:24:59;;;;;;;19.75;14.30;;;14.30;79.80;;;;;;6162874;23;20282;-78
2022/04/22 09:27:30;;;;;;;23.48;13.88;;;14.50;78.50;;;;;;6163337;23;20002;-77
2022/04/22 09:29:56;;;;;;;21.27;12.23;;;14.60;78.70;;;;;;6163461;23;20084;-76
2022/04/22 09:32:27;;;;;;;20.90;13.73;;;15.00;77.40;;;;;;6136265;23;20017;-77
2022/04/22 09:34:57;;;;;;;17.48;13.23;;;15.10;76.30;;;;;;6146159;23;20002;-78
2022/04/22 09:42:58;;;;;;;17.08;12.65;;;15.30;76.10;;;;;;6134398;23;20013;-77
2022/04/22 09:45:38;;;;;;;16.88;13.02;;;15.50;76.50;;;;;;6135778;23;20018;-78
2022/04/22 09:48:13;;;;;;;22.13;13.02;;;15.60;74.50;;;;;;6162436;23;20006;-77
2022/04/22 09:50:41;;;;;;;21.35;12.25;;;15.70;75.00;;;;;;6163804;23;20113;-77
2022/04/22 09:53:08;;;;;;;17.33;12.63;;;15.80;74.10;;;;;;6162774;23;20006;-78
2022/04/22 09:55:49;;;;;;;17.90;12.85;;;16.00;73.10;;;;;;6139035;23;19993;-77
2022/04/22 09:58:29;;;;;;;17.88;13.27;;;16.10;73.20;;;;;;6139049;23;20033;-78
2022/04/22 10:01:04;;;;;;;17.75;12.60;;;16.20;72.40;;;;;;6164603;23;20068;-78
2022/04/22 10:03:37;;;;;;;19.30;13.65;;;16.30;72.80;;;;;;6163892;23;20060;-77
2022/04/22 10:06:05;;;;;;;17.23;12.55;;;16.50;72.80;;;;;;6164880;23;20071;-75
2022/04/22 10:08:36;;;;;;;14.55;11.93;;;16.40;71.50;;;;;;6166371;23;19993;-75
2022/04/22 10:11:04;;;;;;;14.75;11.82;;;16.40;71.70;;;;;;6165879;23;20001;-77
2022/04/22 10:13:33;;;;;;;17.30;11.18;;;16.30;72.40;;;;;;6164148;23;19990;-76
2022/04/22 10:16:00;;;;;;;17.02;11.90;;;16.50;72.30;;;;;;6153358;23;20311;-77
2022/04/22 10:18:27;;;;;;;14.65;11.55;;;16.70;71.40;;;;;;6136007;23;19994;-77
2022/04/22 10:20:54;;;;;;;16.27;11.02;;;16.80;70.70;;;;;;6159482;23;20129;-78
2022/04/22 10:23:21;;;;;;;14.70;12.27;;;16.90;70.70;;;;;;6135202;23;19997;-78
2022/04/22 10:25:48;;;;;;;15.32;11.38;;;16.70;70.40;;;;;;6136316;23;20014;-78
2022/04/22 10:28:15;;;;;;;14.48;11.70;;;16.60;72.30;;;;;;6134896;23;20033;-78
2022/04/22 10:30:43;;;;;;;14.07;11.43;;;16.70;71.20;;;;;;6142225;23;20308;-76
2022/04/22 10:33:12;;;;;;;15.25;11.43;;;17.00;71.00;;;;;;6165538;23;20294;-76
2022/04/22 10:35:41;;;;;;;16.55;12.02;;;17.10;70.40;;;;;;6164182;23;20179;-77
2022/04/22 10:38:10;;;;;;;;;;;17.40;69.60;;;;;;6166003;23;20009;-77
2022/04/22 10:40:36;;;;;;;14.00;10.38;;;17.60;69.50;;;;;;6163458;23;19902;-78
2022/04/22 10:43:03;;;;;;;13.20;10.55;;;17.90;68.60;;;;;;6165156;23;20012;-76
2022/04/22 10:48:21;;;;;;;14.93;10.05;;;18.10;67.50;;;;;;6163669;23;20167;-77
2022/04/22 10:50:58;;;;;;;16.15;10.13;;;18.50;67.80;;;;;;6163507;23;20207;-77
2022/04/22 10:53:29;;;;;;;13.85;10.48;;;18.70;66.10;;;;;;6165061;23;20010;-77
2022/04/22 10:56:26;;;;;;;12.10;9.48;;;18.80;65.30;;;;;;6165776;23;20021;-77
2022/04/22 10:59:21;;;;;;;13.57;10.10;;;18.70;66.00;;;;;;6134317;23;20006;-77
2022/04/22 11:01:48;;;;;;;13.40;10.68;;;18.90;66.10;;;;;;6123726;23;20014;-78
2022/04/22 11:04:29;;;;;;;14.05;9.93;;;19.00;65.90;;;;;;6135608;23;20181;-77
2022/04/22 11:06:56;;;;;;;12.93;10.18;;;19.20;65.80;;;;;;6136024;23;19998;-78
2022/04/22 11:09:31;;;;;;;14.23;11.40;;;19.50;65.40;;;;;;6135403;23;20002;-77
2022/04/22 11:11:58;;;;;;;13.65;10.40;;;19.60;64.50;;;;;;6134011;23;19998;-77
2022/04/22 11:14:26;;;;;;;15.13;11.35;;;19.70;64.40;;;;;;6134980;23;20002;-78
2022/04/22 11:17:15;;;;;;;15.02;11.05;;;20.00;63.90;;;;;;6134533;23;20018;-77
2022/04/22 11:19:57;;;;;;;11.00;9.35;;;20.10;63.00;;;;;;6135652;23;20013;-77
2022/04/22 11:22:52;;;;;;;13.35;10.50;;;20.40;62.50;;;;;;6135132;23;20021;-79
2022/04/22 11:25:26;;;;;;;16.90;9.65;;;20.70;60.90;;;;;;6134519;23;20005;-78
2022/04/22 11:27:56;;;;;;;12.60;9.30;;;21.50;59.80;;;;;;6158827;23;20013;-78
2022/04/22 11:30:22;;;;;;;12.27;9.30;;;22.40;58.70;;;;;;6107725;23;20070;-78
2022/04/22 11:32:52;;;;;;;10.80;8.55;;;23.20;57.30;;;;;;6133836;23;20103;-79
2022/04/22 11:35:20;;;;;;;10.57;8.38;;;23.30;56.30;;;;;;6108406;23;20006;-78
2022/04/22 11:37:57;;;;;;;10.52;9.07;;;22.80;57.00;;;;;;6109533;23;20002;-78
2022/04/22 11:40:22;;;;;;;10.23;9.07;;;23.30;56.50;;;;;;6157293;23;20006;-78
2022/04/22 11:42:51;;;;;;;11.25;8.45;;;24.30;55.00;;;;;;6133645;23;20088;-78
2022/04/22 11:45:16;;;;;;;11.13;8.05;;;25.10;53.90;;;;;;6132405;23;19998;-79
2022/04/22 11:47:43;;;;;;;10.85;9.60;;;25.30;53.50;;;;;;6158617;23;20013;-79
2022/04/22 11:50:17;;;;;;;10.13;8.95;;;25.80;52.50;;;;;;6135187;23;20346;-78
2022/04/22 11:52:43;;;;;;;12.52;9.75;;;26.20;51.40;;;;;;6135181;23;20017;-79
2022/04/22 11:55:09;;;;;;;9.30;7.78;;;26.30;51.10;;;;;;6133377;23;20017;-78
2022/04/22 11:57:38;;;;;;;9.52;8.48;;;27.30;50.70;;;;;;6134507;23;20333;-77
2022/04/22 12:05:48;;;;;;;8.35;7.47;;;28.10;50.00;;;;;;6134081;23;20048;-76
2022/04/22 12:08:15;;;;;;;8.52;7.63;;;28.40;48.90;;;;;;6134993;23;20199;-76
2022/04/22 12:10:47;;;;;;;9.63;8.23;;;28.60;48.60;;;;;;6133623;23;20002;-77
2022/04/22 12:13:14;;;;;;;8.82;7.80;;;27.30;49.80;;;;;;6133622;23;20215;-78
2022/04/22 12:15:45;;;;;;;9.95;8.52;;;26.80;50.80;;;;;;6107190;23;20025;-78
2022/04/22 12:18:32;;;;;;;10.38;7.93;;;27.30;49.90;;;;;;6158394;23;20068;-78
2022/04/22 12:20:58;;;;;;;8.38;7.50;;;27.70;49.80;;;;;;6135013;23;20045;-78
2022/04/22 12:23:41;;;;;;;8.90;7.82;;;28.50;49.10;;;;;;6133710;23;20045;-78
2022/04/22 12:26:17;;;;;;;8.35;7.45;;;28.90;48.70;;;;;;6134892;23;20029;-77
2022/04/22 12:28:59;;;;;;;8.38;6.82;;;29.60;47.90;;;;;;6133595;23;20006;-76
2022/04/22 12:31:27;;;;;;;7.80;6.78;;;30.70;47.30;;;;;;6107527;23;20017;-76
2022/04/22 12:33:58;;;;;;;7.53;6.72;;;31.60;46.50;;;;;;6133296;23;20057;-76
2022/04/22 12:36:24;;;;;;;7.93;7.13;;;32.50;45.40;;;;;;6133683;23;20187;-77
2022/04/22 12:38:50;;;;;;;8.48;7.13;;;33.00;44.40;;;;;;6134742;23;19986;-76
2022/04/22 12:41:23;;;;;;;7.63;6.82;;;33.20;44.20;;;;;;6135026;23;20002;-77
2022/04/22 12:43:53;;;;;;;8.00;7.20;;;32.10;44.60;;;;;;6158041;23;20029;-77
2022/04/22 12:52:17;;;;;;;8.23;7.07;;;31.30;45.50;;;;;;6134166;23;20014;-76
2022/04/22 12:54:45;;;;;;;7.95;6.32;;;32.70;44.40;;;;;;6134034;23;20064;-76
2022/04/22 12:57:23;;;;;;;7.00;6.30;;;33.50;43.80;;;;;;6134398;23;19994;-78
2022/04/22 12:59:52;;;;;;;7.03;6.32;;;34.20;43.10;;;;;;6108444;23;20267;-76
2022/04/22 13:02:21;;;;;;;7.32;6.50;;;34.40;42.70;;;;;;6133349;23;20022;-76
2022/04/22 13:05:00;;;;;;;6.85;6.20;;;33.60;43.00;;;;;;6134336;23;20021;-77
2022/04/22 13:07:41;;;;;;;7.82;6.90;;;32.60;43.50;;;;;;6132275;23;20165;-77
2022/04/22 13:10:14;;;;;;;6.43;5.60;;;31.90;44.40;;;;;;6134038;23;20212;-76
2022/04/22 13:12:42;;;;;;;6.82;5.35;;;31.60;44.80;;;;;;6133677;23;20044;-76
2022/04/22 13:15:19;;;;;;;8.05;6.00;;;31.20;45.10;;;;;;6131857;23;20292;-77
2022/04/22 13:17:47;;;;;;;7.47;5.93;;;31.10;44.80;;;;;;6156778;23;20006;-76
2022/04/22 13:20:18;;;;;;;8.65;7.28;;;32.00;44.80;;;;;;6134069;23;20219;-77
2022/04/22 13:22:45;;;;;;;5.68;5.07;;;33.80;43.10;;;;;;6133710;23;20033;-77
2022/04/22 13:25:12;;;;;;;7.22;5.63;;;35.60;42.90;;;;;;6134602;23;20165;-77
2022/04/22 13:27:39;;;;;;;5.70;5.10;;;37.70;40.80;;;;;;6109001;23;20010;-76
2022/04/22 13:30:06;;;;;;;5.22;4.65;;;36.80;40.40;;;;;;6134640;23;20002;-76
2022/04/22 13:32:32;;;;;;;7.53;4.05;;;34.40;41.10;;;;;;6136176;23;20010;-76
2022/04/22 13:34:58;;;;;;;6.05;4.70;;;32.40;42.90;;;;;;6136662;23;20310;-75
2022/04/22 13:37:25;;;;;;;6.25;4.80;;;30.70;44.40;;;;;;6158501;23;20068;-76
2022/04/22 13:39:51;;;;;;;7.47;6.63;;;31.20;44.70;;;;;;6134941;23;20280;-76
2022/04/22 13:42:18;;;;;;;10.02;6.72;;;32.20;44.00;;;;;;6136091;23;20057;-76
2022/04/22 13:52:57;;;;;;;6.75;4.85;;;35.90;41.20;;;;;;6156149;23;20036;-76
2022/04/22 13:55:23;;;;;;;7.95;6.28;;;37.00;40.80;;;;;;6166001;23;20002;-76
2022/04/22 13:57:49;;;;;;;7.00;6.30;;;36.50;40.60;;;;;;6164405;23;20010;-76
2022/04/22 14:00:15;;;;;;;6.97;6.28;;;35.60;40.80;;;;;;6164790;23;20068;-77
2022/04/22 14:02:41;;;;;;;7.22;5.95;;;35.20;41.00;;;;;;6163477;23;20014;-77
2022/04/22 14:05:07;;;;;;;7.88;6.25;;;34.50;41.80;;;;;;6164564;23;20005;-77
2022/04/22 14:07:33;;;;;;;7.10;5.55;;;35.30;41.30;;;;;;6163625;23;20061;-77
2022/04/22 14:09:59;;;;;;;10.35;6.25;;;35.20;41.30;;;;;;6164419;23;20064;-77
2022/04/22 14:12:25;;;;;;;6.22;5.63;;;35.70;40.50;;;;;;6165290;23;19998;-77
2022/04/22 14:14:53;;;;;;;6.85;5.07;;;36.40;40.50;;;;;;6164153;23;20005;-77
2022/04/22 14:17:19;;;;;;;5.80;4.22;;;35.70;40.10;;;;;;6164962;23;20014;-78
2022/04/22 14:19:47;;;;;;;4.57;4.10;;;35.10;41.30;;;;;;6163694;23;20040;-78
2022/04/22 14:22:12;;;;;;;4.80;4.30;;;36.40;40.60;;;;;;6165749;23;20012;-78
2022/04/22 14:24:40;;;;;;;6.30;4.72;;;36.10;40.10;;;;;;6165149;23;19985;-78
2022/04/22 14:27:07;;;;;;;5.97;5.05;;;36.10;40.00;;;;;;6165839;23;19997;-79
2022/04/22 14:29:36;;;;;;;7.43;5.07;;;34.80;40.40;;;;;;6139304;23;20002;-76
2022/04/22 14:32:03;;;;;;;6.60;5.25;;;34.80;41.20;;;;;;6138599;23;20049;-77
2022/04/22 14:34:29;;;;;;;7.45;4.85;;;35.50;40.90;;;;;;6138958;23;20016;-77
2022/04/22 14:36:56;;;;;;;6.57;4.40;;;36.90;40.60;;;;;;6165652;23;20001;-77
2022/04/22 14:39:21;;;;;;;6.50;4.30;;;36.90;40.00;;;;;;6165046;23;20195;-77
2022/04/22 14:41:48;;;;;;;5.78;4.32;;;36.40;40.10;;;;;;6164562;23;20001;-77
2022/04/22 14:44:14;;;;;;;5.20;4.13;;;37.00;39.40;;;;;;6165261;23;20025;-77
2022/04/22 14:46:41;;;;;;;5.25;4.75;;;36.30;39.70;;;;;;6164192;23;20021;-76
2022/04/22 14:49:07;;;;;;;5.47;4.50;;;34.60;40.90;;;;;;6165444;23;20187;-77
2022/04/22 14:51:33;;;;;;;6.80;5.38;;;33.70;41.30;;;;;;6164933;23;20025;-77
2022/04/22 14:53:59;;;;;;;5.85;5.00;;;32.70;41.50;;;;;;6165275;23;20187;-77
2022/04/22 14:56:27;;;;;;;9.07;5.32;;;31.10;42.70;;;;;;6163758;23;20008;-77
2022/04/22 14:58:53;;;;;;;5.60;5.10;;;30.70;44.40;;;;;;6165358;23;20051;-77
2022/04/22 15:01:18;;;;;;;7.65;5.18;;;32.20;42.80;;;;;;6163270;23;20013;-77
2022/04/22 15:03:44;;;;;;;6.78;5.63;;;34.00;41.60;;;;;;6164472;23;20105;-77
2022/04/22 15:06:10;;;;;;;5.53;4.45;;;35.40;40.70;;;;;;6164023;23;20005;-77
2022/04/22 15:08:36;;;;;;;7.53;5.38;;;36.90;39.50;;;;;;6163499;23;20268;-77
2022/04/22 15:11:02;;;;;;;6.22;4.80;;;38.00;38.60;;;;;;6163989;23;20002;-77
2022/04/22 15:13:33;;;;;;;5.18;4.07;;;38.80;38.50;;;;;;6165330;23;20009;-77
2022/04/22 15:16:00;;;;;;;5.60;4.47;;;38.50;38.40;;;;;;6164367;23;20117;-77
2022/04/22 15:24:12;;;;;;;4.95;4.10;;;39.60;37.70;;;;;;6165335;23;20013;-78
2022/04/22 15:26:39;;;;;;;6.13;3.92;;;39.60;37.50;;;;;;6164834;23;20001;-77
2022/04/22 15:29:06;;;;;;;6.00;3.42;;;38.00;38.80;;;;;;6165236;23;20002;-76
2022/04/22 15:31:32;;;;;;;5.20;4.18;;;37.80;39.00;;;;;;6163876;23;20041;-78
2022/04/22 15:33:58;;;;;;;4.82;4.20;;;37.60;38.30;;;;;;6165181;23;20060;-76
2022/04/22 15:36:24;;;;;;;5.32;3.92;;;35.50;39.40;;;;;;6165180;23;20009;-76
2022/04/22 15:38:50;;;;;;;6.45;4.53;;;34.40;40.50;;;;;;6164088;23;20297;-76
2022/04/22 15:41:21;;;;;;;5.45;4.85;;;33.70;40.70;;;;;;6163685;23;20283;-76
2022/04/22 15:43:52;;;;;;;6.20;4.65;;;32.70;41.20;;;;;;6164012;23;20099;-77
2022/04/22 15:46:19;;;;;;;6.05;4.05;;;30.90;42.40;;;;;;6164391;23;20044;-77
2022/04/22 15:48:45;;;;;;;6.43;4.47;;;29.20;44.30;;;;;;6164004;23;19997;-77
2022/04/22 15:51:12;;;;;;;6.35;4.22;;;28.50;44.50;;;;;;6162827;23;20165;-76
2022/04/22 15:53:39;;;;;;;8.38;5.72;;;27.60;45.90;;;;;;6164209;23;20016;-77
2022/04/22 15:56:06;;;;;;;6.53;5.20;;;27.40;46.10;;;;;;6164660;23;20056;-76
2022/04/22 15:58:32;;;;;;;6.05;4.78;;;28.50;45.20;;;;;;6162719;23;20005;-77
2022/04/22 16:00:59;;;;;;;6.75;4.15;;;28.80;44.40;;;;;;6164059;23;20017;-77
2022/04/22 16:03:25;;;;;;;5.00;4.13;;;28.80;44.90;;;;;;6164251;23;20015;-77
2022/04/22 16:05:55;;;;;;;5.07;4.50;;;28.10;45.60;;;;;;6163891;23;20683;-77
2022/04/22 16:08:22;;;;;;;6.10;4.80;;;27.30;46.30;;;;;;6164936;23;20004;-77
2022/04/22 16:10:48;;;;;;;6.00;4.38;;;26.80;46.70;;;;;;6163613;23;20005;-77
2022/04/22 16:16:00;;;;;;;6.72;4.85;;;26.40;47.00;;;;;;6164263;23;20114;-77
2022/04/22 16:18:26;;;;;;;8.40;5.65;;;26.80;47.60;;;;;;6162769;23;20044;-77
2022/04/22 16:20:53;;;;;;;7.53;4.95;;;27.70;46.30;;;;;;6162741;23;20319;-77
2022/04/22 16:23:20;;;;;;;5.63;4.57;;;28.40;46.00;;;;;;6163116;23;20048;-77
2022/04/22 16:25:46;;;;;;;6.43;4.82;;;29.80;45.10;;;;;;6163525;23;19993;-77
2022/04/22 16:28:13;;;;;;;5.47;4.53;;;30.90;43.40;;;;;;6164376;23;19997;-77
2022/04/22 16:30:40;;;;;;;5.32;4.20;;;31.70;42.90;;;;;;6163155;23;20252;-77
2022/04/22 16:33:07;;;;;;;5.65;4.28;;;31.80;42.60;;;;;;6164071;23;20268;-77
2022/04/22 16:35:36;;;;;;;5.53;4.07;;;30.90;43.00;;;;;;6164433;23;20283;-77
2022/04/22 16:38:03;;;;;;;6.13;3.90;;;29.80;44.10;;;;;;6164368;23;20080;-77
2022/04/22 16:40:31;;;;;;;5.53;4.07;;;29.20;44.60;;;;;;6164448;23;20005;-76
2022/04/22 16:42:57;;;;;;;5.82;3.92;;;28.20;45.10;;;;;;6163874;23;20009;-75
2022/04/22 16:45:23;;;;;;;5.35;3.78;;;27.20;46.00;;;;;;6164277;23;20037;-78
2022/04/22 16:47:49;;;;;;;5.10;3.63;;;26.50;46.90;;;;;;6163379;23;20032;-78
2022/04/22 16:50:15;;;;;;;5.13;3.60;;;26.20;47.90;;;;;;6163106;23;20001;-75
2022/04/22 16:52:45;;;;;;;5.30;3.83;;;26.40;47.80;;;;;;6162538;23;20005;-76
2022/04/22 16:55:12;;;;;;;4.78;3.38;;;26.50;47.50;;;;;;6164263;23;20023;-77
2022/04/22 16:57:39;;;;;;;5.40;4.00;;;26.20;48.30;;;;;;6163485;23;20004;-78
2022/04/22 17:00:11;;;;;;;6.33;3.87;;;26.10;48.00;;;;;;6163283;23;20311;-78
2022/04/22 17:02:41;;;;;;;6.10;4.30;;;25.60;48.80;;;;;;6161480;23;20015;-76
2022/04/22 17:05:08;;;;;;;4.35;3.53;;;24.80;49.10;;;;;;6162972;23;20222;-75
2022/04/22 17:07:36;;;;;;;7.75;5.00;;;24.20;50.60;;;;;;6163910;23;20090;-75
2022/04/22 17:10:03;;;;;;;6.55;4.65;;;23.50;51.40;;;;;;6162625;23;20001;-76
2022/04/22 17:12:29;;;;;;;8.02;4.93;;;22.80;52.70;;;;;;6163793;23;20002;-75
2022/04/22 17:23:10;;;;;;;6.85;4.75;;;21.50;55.40;;;;;;6164616;23;20029;-76
2022/04/22 17:25:36;;;;;;;7.80;4.47;;;21.40;56.10;;;;;;6163345;23;20010;-76
2022/04/22 17:28:02;;;;;;;6.82;5.10;;;21.30;55.80;;;;;;6163111;23;20005;-75
2022/04/22 17:30:28;;;;;;;8.18;4.75;;;21.20;56.40;;;;;;6162817;23;20052;-76
2022/04/22 17:32:54;;;;;;;7.30;4.80;;;21.20;56.50;;;;;;6159256;23;20234;-77
2022/04/22 17:35:20;;;;;;;11.25;5.05;;;21.10;56.40;;;;;;6163889;23;20025;-78
2022/04/22 17:37:46;;;;;;;8.30;4.78;;;21.00;56.90;;;;;;6137643;23;20060;-76
2022/04/22 17:40:13;;;;;;;7.22;4.13;;;21.00;57.50;;;;;;6163685;23;20006;-77
2022/04/22 17:42:39;;;;;;;6.88;4.40;;;20.90;57.70;;;;;;6163280;23;20010;-77
2022/04/22 17:45:06;;;;;;;6.78;4.32;;;20.90;57.10;;;;;;6161724;23;20168;-78
2022/04/22 17:47:32;;;;;;;7.20;4.30;;;20.60;57.80;;;;;;6164555;23;20001;-76
2022/04/22 17:49:58;;;;;;;5.35;4.05;;;20.40;57.40;;;;;;6161979;23;20228;-76
2022/04/22 17:52:24;;;;;;;8.63;4.57;;;20.30;57.80;;;;;;6112814;23;20029;-76
2022/04/22 17:54:51;;;;;;;9.45;4.07;;;20.10;58.00;;;;;;6163325;23;20009;-77
2022/04/22 17:57:17;;;;;;;4.93;3.85;;;20.00;58.30;;;;;;6149390;23;20013;-77
2022/04/22 17:59:46;;;;;;;8.00;4.63;;;19.80;58.80;;;;;;6161970;23;20005;-77
2022/04/22 18:02:14;;;;;;;9.00;4.78;;;19.70;58.90;;;;;;6159100;23;20022;-77
2022/04/22 18:04:40;;;;;;;8.07;4.40;;;19.50;59.30;;;;;;6161948;23;20385;-78
2022/04/22 18:07:06;;;;;;;6.00;3.90;;;19.40;59.70;;;;;;6163737;23;20400;-77
2022/04/22 18:09:32;;;;;;;6.88;5.00;;;19.30;60.20;;;;;;6162880;23;19993;-77
2022/04/22 18:11:59;;;;;;;7.97;5.25;;;19.10;61.10;;;;;;6164052;23;20053;-76
2022/04/22 18:17:11;;;;;;;8.25;4.38;;;18.80;61.80;;;;;;6134135;23;20014;-77
2022/04/22 18:19:40;;;;;;;7.07;5.25;;;18.60;62.40;;;;;;6159231;23;20002;-78
2022/04/22 18:22:10;;;;;;;9.35;4.75;;;18.40;63.00;;;;;;6110726;23;20219;-78
2022/04/22 18:24:36;;;;;;;8.20;4.90;;;18.30;63.10;;;;;;6115696;23;20018;-78
2022/04/22 18:27:05;;;;;;;7.32;4.80;;;18.10;63.60;;;;;;6114959;23;20014;-78
2022/04/22 18:29:34;;;;;;;9.68;4.90;;;18.00;63.80;;;;;;6133956;23;20002;-76
2022/04/22 18:32:00;;;;;;;;;;;17.90;64.20;;;;;;6158189;23;20016;-76
2022/04/22 18:34:26;;;;;;;6.20;4.43;;;17.80;64.50;;;;;;6166023;23;19904;-77
2022/04/22 18:36:52;;;;;;;9.93;4.75;;;17.70;64.90;;;;;;6165241;23;20009;-77
2022/04/22 18:39:18;;;;;;;8.32;4.88;;;17.60;65.20;;;;;;6165675;23;20012;-76
2022/04/22 18:41:45;;;;;;;7.50;4.78;;;17.50;65.40;;;;;;6165109;23;20199;-78
2022/04/22 18:44:11;;;;;;;11.15;5.50;;;17.50;65.40;;;;;;6165463;23;20072;-76
2022/04/22 18:46:37;;;;;;;9.95;4.90;;;17.50;65.80;;;;;;6145712;23;20021;-78
2022/04/22 18:49:04;;;;;;;11.93;5.40;;;17.50;65.70;;;;;;6135573;23;20041;-78